Time;durP1;ratioP1;P1;durP2;ratioP2;P2;SDS_P1;SDS_P2;PMS_P1;PMS_P2;Temp;Humidity;BMP_temperature;BMP_pressure;BME280_temperature;BME280_humidity;BME280_pressure;Samples;Min_cycle;Max_cycle;Signal;HPM_P1;HPM_P2
2021/10/20 00:00:23;;;;;;;6.83;4.57;;;10.90;99.90;;;;;;5048854;28;20224;-75
2021/10/20 00:02:50;;;;;;;6.00;4.10;;;10.90;99.90;;;;;;5013862;28;20223;-75
2021/10/20 00:05:19;;;;;;;6.33;5.10;;;10.90;99.90;;;;;;5030567;28;20848;-74
2021/10/20 00:07:48;;;;;;;6.33;4.90;;;10.80;99.90;;;;;;5012739;28;21113;-75
2021/10/20 00:10:16;;;;;;;4.90;4.10;;;10.90;99.90;;;;;;5030832;28;20860;-75
2021/10/20 00:12:42;;;;;;;5.47;4.20;;;10.90;99.90;;;;;;5029614;28;20461;-75
2021/10/20 00:15:12;;;;;;;5.40;4.77;;;10.80;99.90;;;;;;5030502;28;20469;-75
2021/10/20 00:17:38;;;;;;;8.43;5.00;;;10.80;99.90;;;;;;5012559;28;20486;-75
2021/10/20 00:20:09;;;;;;;4.63;4.23;;;10.80;99.90;;;;;;5010304;28;20459;-75
2021/10/20 00:22:36;;;;;;;5.40;4.90;;;10.70;99.90;;;;;;5046683;28;20227;-75
2021/10/20 00:25:03;;;;;;;7.07;4.70;;;10.70;99.90;;;;;;5031147;28;20474;-75
2021/10/20 00:27:28;;;;;;;5.40;4.70;;;10.70;99.90;;;;;;5028894;28;20493;-76
2021/10/20 00:29:54;;;;;;;9.90;5.37;;;10.70;99.90;;;;;;5013703;28;20529;-76
2021/10/20 00:32:20;;;;;;;5.27;4.77;;;10.70;99.90;;;;;;5028494;28;20212;-75
2021/10/20 00:34:46;;;;;;;6.93;4.47;;;10.70;99.90;;;;;;5010909;28;20987;-75
2021/10/20 00:37:11;;;;;;;6.03;4.20;;;10.70;99.90;;;;;;5028509;28;20255;-76
2021/10/20 00:39:37;;;;;;;5.37;4.67;;;10.70;99.90;;;;;;5010586;28;20253;-76
2021/10/20 00:42:04;;;;;;;5.10;3.90;;;10.70;99.90;;;;;;5011046;28;20219;-76
2021/10/20 00:44:43;;;;;;;9.33;5.07;;;10.70;99.90;;;;;;5012503;28;20239;-76
2021/10/20 00:47:08;;;;;;;5.47;4.40;;;10.70;99.90;;;;;;5030049;28;20584;-75
2021/10/20 00:49:34;;;;;;;5.30;4.53;;;10.60;99.90;;;;;;5046327;28;20561;-76
2021/10/20 00:52:00;;;;;;;6.17;5.17;;;10.70;99.90;;;;;;5010020;28;20224;-75
2021/10/20 00:54:27;;;;;;;6.17;5.20;;;10.60;99.90;;;;;;5011878;28;20212;-76
2021/10/20 00:56:53;;;;;;;6.03;4.70;;;10.60;99.90;;;;;;5030082;28;20230;-75
2021/10/20 00:59:19;;;;;;;8.10;5.23;;;10.50;99.90;;;;;;5012291;28;20464;-75
2021/10/20 01:01:45;;;;;;;8.43;5.10;;;10.50;99.90;;;;;;5013536;28;20534;-76
2021/10/20 01:04:10;;;;;;;5.73;4.50;;;10.50;99.90;;;;;;5030274;28;20596;-76
2021/10/20 01:06:36;;;;;;;6.10;4.77;;;10.50;99.90;;;;;;5046769;28;20220;-76
2021/10/20 01:09:02;;;;;;;9.30;5.13;;;10.40;99.90;;;;;;5013548;28;20274;-75
2021/10/20 01:11:28;;;;;;;7.10;4.43;;;10.50;99.90;;;;;;5011316;28;20494;-75
2021/10/20 01:13:54;;;;;;;4.00;3.60;;;10.50;99.90;;;;;;5010057;28;20286;-75
2021/10/20 01:16:20;;;;;;;7.90;5.40;;;10.50;99.90;;;;;;5028661;28;20215;-75
2021/10/20 01:18:46;;;;;;;5.23;4.53;;;10.50;99.90;;;;;;5021153;28;20219;-76
2021/10/20 01:21:19;;;;;;;5.57;5.00;;;10.50;99.90;;;;;;5012951;28;20226;-75
2021/10/20 01:23:49;;;;;;;7.23;4.57;;;10.50;99.90;;;;;;5013282;28;20546;-76
2021/10/20 01:26:17;;;;;;;5.13;4.23;;;10.50;99.90;;;;;;5013763;28;20474;-76
2021/10/20 01:28:44;;;;;;;5.97;4.37;;;10.50;99.90;;;;;;5011062;28;20458;-75
2021/10/20 01:31:11;;;;;;;6.30;4.70;;;10.50;99.90;;;;;;5029819;28;21002;-74
2021/10/20 01:33:37;;;;;;;7.40;4.67;;;10.50;99.90;;;;;;5011755;28;20469;-76
2021/10/20 01:36:03;;;;;;;9.17;4.33;;;10.50;99.90;;;;;;5030022;28;20550;-74
2021/10/20 01:38:29;;;;;;;6.37;4.07;;;10.40;99.90;;;;;;5027763;28;20553;-75
2021/10/20 01:40:55;;;;;;;5.63;4.20;;;10.40;99.90;;;;;;5019482;28;20231;-75
2021/10/20 01:43:21;;;;;;;4.93;3.90;;;10.40;99.90;;;;;;5026648;28;20291;-75
2021/10/20 01:45:47;;;;;;;4.70;4.30;;;10.40;99.90;;;;;;5015683;28;20472;-75
2021/10/20 01:48:13;;;;;;;4.27;3.63;;;10.40;99.90;;;;;;5029662;28;20887;-75
2021/10/20 01:50:38;;;;;;;4.67;3.83;;;10.40;99.90;;;;;;5013355;28;20230;-75
2021/10/20 01:53:04;;;;;;;4.30;3.80;;;10.40;99.90;;;;;;5033046;28;20226;-74
2021/10/20 01:55:29;;;;;;;4.13;3.70;;;10.40;99.90;;;;;;5049516;28;20215;-75
2021/10/20 01:57:55;;;;;;;4.83;3.60;;;10.40;99.90;;;;;;5016683;28;20307;-74
2021/10/20 02:00:21;;;;;;;5.70;3.67;;;10.30;99.90;;;;;;5031310;28;20224;-76
2021/10/20 02:02:46;;;;;;;4.70;3.70;;;10.30;99.90;;;;;;5016775;28;20215;-75
2021/10/20 02:05:14;;;;;;;6.03;4.40;;;10.30;99.90;;;;;;5016181;28;20231;-76
2021/10/20 02:07:41;;;;;;;4.73;3.90;;;10.30;99.90;;;;;;5015318;28;20230;-74
2021/10/20 02:10:12;;;;;;;5.10;4.10;;;10.30;99.90;;;;;;5033025;28;20470;-74
2021/10/20 02:12:38;;;;;;;3.80;3.50;;;10.30;99.90;;;;;;5031605;28;20545;-75
2021/10/20 02:15:05;;;;;;;6.87;5.10;;;10.30;99.90;;;;;;5015980;28;20851;-75
2021/10/20 02:17:31;;;;;;;5.43;4.93;;;10.20;99.90;;;;;;5031557;28;20831;-75
2021/10/20 02:19:56;;;;;;;5.07;4.53;;;10.20;99.90;;;;;;5023035;28;20465;-75
2021/10/20 02:22:22;;;;;;;4.40;4.00;;;10.20;99.90;;;;;;5015888;28;20232;-75
2021/10/20 02:24:48;;;;;;;6.10;4.57;;;10.10;99.90;;;;;;5016575;28;20235;-74
2021/10/20 02:27:13;;;;;;;4.33;3.77;;;10.10;99.90;;;;;;5033187;28;20301;-75
2021/10/20 02:29:39;;;;;;;5.37;4.30;;;10.10;99.90;;;;;;5013669;28;20294;-75
2021/10/20 02:32:05;;;;;;;7.00;4.40;;;10.10;99.90;;;;;;5032717;28;20228;-75
2021/10/20 02:34:30;;;;;;;3.80;3.50;;;10.10;99.90;;;;;;5031360;28;20216;-75
2021/10/20 02:36:56;;;;;;;4.13;3.73;;;10.10;99.90;;;;;;5015961;28;20216;-75
2021/10/20 02:39:22;;;;;;;5.37;4.37;;;10.10;99.90;;;;;;5031427;28;20243;-74
2021/10/20 02:41:48;;;;;;;3.97;3.57;;;10.10;99.90;;;;;;5015578;28;20491;-75
2021/10/20 02:44:14;;;;;;;4.33;3.50;;;10.10;99.90;;;;;;5015806;28;20307;-73
2021/10/20 02:46:39;;;;;;;8.83;4.43;;;10.10;99.90;;;;;;5014014;28;20285;-75
2021/10/20 02:49:05;;;;;;;6.60;3.60;;;10.10;99.90;;;;;;5032087;28;20230;-75
2021/10/20 02:51:32;;;;;;;4.33;3.70;;;10.10;99.90;;;;;;5014076;28;20293;-75
2021/10/20 02:53:59;;;;;;;4.37;3.70;;;10.10;99.90;;;;;;5032414;28;20300;-75
2021/10/20 02:56:25;;;;;;;4.47;3.80;;;10.10;99.90;;;;;;5027797;28;20470;-75
2021/10/20 02:58:52;;;;;;;4.10;3.70;;;10.10;99.90;;;;;;5012317;28;20447;-74
2021/10/20 03:01:18;;;;;;;4.40;4.00;;;10.10;99.90;;;;;;5033253;28;20550;-74
2021/10/20 03:03:45;;;;;;;3.93;3.53;;;10.10;99.90;;;;;;5014119;28;20890;-74
2021/10/20 03:06:16;;;;;;;5.17;3.37;;;10.00;99.90;;;;;;5031607;28;20227;-74
2021/10/20 03:08:42;;;;;;;4.70;3.77;;;10.00;99.90;;;;;;5024151;28;20461;-76
2021/10/20 03:11:07;;;;;;;5.37;4.67;;;10.00;99.90;;;;;;5015629;28;20473;-75
2021/10/20 03:13:33;;;;;;;7.70;3.90;;;10.10;99.90;;;;;;5014256;28;20454;-74
2021/10/20 03:15:59;;;;;;;5.80;4.60;;;10.00;99.90;;;;;;5015025;28;20227;-75
2021/10/20 03:18:24;;;;;;;5.20;3.80;;;10.10;99.90;;;;;;5013828;28;20227;-74
2021/10/20 03:20:50;;;;;;;4.30;3.90;;;10.10;99.90;;;;;;5015266;28;20224;-75
2021/10/20 03:23:16;;;;;;;6.40;3.83;;;10.00;99.90;;;;;;5015579;28;20227;-74
2021/10/20 03:25:41;;;;;;;7.97;4.53;;;10.00;99.90;;;;;;5030596;28;20265;-76
2021/10/20 03:28:07;;;;;;;4.80;3.70;;;10.10;99.90;;;;;;5031451;28;20277;-74
2021/10/20 03:30:33;;;;;;;6.13;4.37;;;10.00;99.90;;;;;;5029804;28;20220;-74
2021/10/20 03:32:58;;;;;;;5.30;4.43;;;10.00;99.90;;;;;;5014941;28;20227;-75
2021/10/20 03:35:24;;;;;;;4.73;3.90;;;10.00;99.90;;;;;;5013120;28;20211;-75
2021/10/20 03:37:49;;;;;;;5.77;4.03;;;10.00;99.90;;;;;;5014999;28;20731;-74
2021/10/20 03:40:15;;;;;;;5.93;4.07;;;10.00;99.90;;;;;;5015067;28;20232;-74
2021/10/20 03:42:42;;;;;;;6.67;4.03;;;10.00;99.90;;;;;;5047743;28;20220;-75
2021/10/20 03:45:08;;;;;;;4.03;3.63;;;10.00;99.90;;;;;;5015062;28;20232;-74
2021/10/20 03:47:34;;;;;;;5.37;3.70;;;10.00;99.90;;;;;;5029376;28;20458;-74
2021/10/20 03:50:00;;;;;;;7.57;4.90;;;10.00;99.90;;;;;;5014709;28;20478;-74
2021/10/20 03:52:25;;;;;;;6.00;4.20;;;10.00;99.90;;;;;;5028320;28;20310;-75
2021/10/20 03:54:51;;;;;;;5.53;3.70;;;10.00;99.90;;;;;;5031219;28;20306;-74
2021/10/20 03:57:17;;;;;;;5.60;4.20;;;9.90;99.90;;;;;;5014557;28;20220;-76
2021/10/20 03:59:44;;;;;;;5.83;4.03;;;9.90;99.90;;;;;;5013057;28;20240;-76
2021/10/20 04:02:10;;;;;;;5.47;4.07;;;9.90;99.90;;;;;;5048482;28;20509;-75
2021/10/20 04:04:36;;;;;;;6.83;3.70;;;9.90;99.90;;;;;;5032034;28;20486;-74
2021/10/20 04:07:02;;;;;;;6.80;4.07;;;9.90;99.90;;;;;;5014861;28;20481;-75
2021/10/20 04:09:27;;;;;;;7.63;4.63;;;9.90;99.90;;;;;;5029611;28;20230;-74
2021/10/20 04:11:53;;;;;;;7.53;3.50;;;9.90;99.90;;;;;;5030919;28;20224;-75
2021/10/20 04:14:19;;;;;;;4.50;4.10;;;9.90;99.90;;;;;;5048999;28;20224;-74
2021/10/20 04:16:44;;;;;;;6.27;4.27;;;9.90;99.90;;;;;;5013131;28;20215;-74
2021/10/20 04:19:10;;;;;;;4.57;3.93;;;9.90;99.90;;;;;;5013773;28;20227;-75
2021/10/20 04:21:36;;;;;;;5.00;4.17;;;9.90;99.90;;;;;;5012739;28;20219;-75
2021/10/20 04:24:01;;;;;;;4.50;4.00;;;9.90;99.90;;;;;;5031003;28;20251;-76
2021/10/20 04:26:27;;;;;;;6.10;4.40;;;9.80;99.90;;;;;;5012284;28;20228;-75
2021/10/20 04:28:53;;;;;;;5.77;4.10;;;9.80;99.90;;;;;;5030358;28;20216;-76
2021/10/20 04:31:18;;;;;;;5.67;4.10;;;9.80;99.90;;;;;;5013373;28;20291;-75
2021/10/20 04:33:44;;;;;;;4.70;4.23;;;9.80;99.90;;;;;;5004453;28;20220;-76
2021/10/20 04:36:09;;;;;;;5.10;4.10;;;9.80;99.90;;;;;;5013609;28;20222;-74
2021/10/20 04:38:35;;;;;;;4.60;3.33;;;9.90;99.90;;;;;;5011361;28;20228;-75
2021/10/20 04:41:01;;;;;;;4.77;4.00;;;9.90;99.90;;;;;;5030476;28;20223;-75
2021/10/20 04:43:26;;;;;;;4.90;4.20;;;9.90;99.90;;;;;;5028556;28;20219;-75
2021/10/20 04:45:54;;;;;;;4.37;3.70;;;9.80;99.90;;;;;;5013900;28;20235;-76
2021/10/20 04:48:20;;;;;;;9.33;5.30;;;9.80;99.90;;;;;;5030499;28;20228;-74
2021/10/20 04:50:45;;;;;;;7.30;4.47;;;9.90;99.90;;;;;;5013490;28;20486;-75
2021/10/20 04:53:11;;;;;;;9.50;4.93;;;9.90;99.90;;;;;;5047758;28;20484;-75
2021/10/20 04:55:37;;;;;;;4.60;4.20;;;9.90;99.90;;;;;;5028987;28;20253;-75
2021/10/20 04:58:07;;;;;;;4.80;4.33;;;9.80;99.90;;;;;;5030287;28;20231;-75
2021/10/20 05:00:34;;;;;;;5.40;4.90;;;9.80;99.90;;;;;;5011747;28;20761;-75
2021/10/20 05:03:00;;;;;;;4.73;4.13;;;9.80;99.90;;;;;;5030224;28;20469;-75
2021/10/20 05:05:26;;;;;;;7.63;4.63;;;9.80;99.90;;;;;;5012262;28;20553;-76
2021/10/20 05:07:53;;;;;;;6.93;4.20;;;9.80;99.90;;;;;;5029419;28;20222;-75
2021/10/20 05:10:21;;;;;;;5.73;4.30;;;9.80;99.90;;;;;;5010034;28;21115;-75
2021/10/20 05:12:47;;;;;;;4.97;4.23;;;9.80;99.90;;;;;;5029313;28;20450;-75
2021/10/20 05:15:15;;;;;;;5.63;4.67;;;9.80;99.90;;;;;;5013730;28;20518;-75
2021/10/20 05:17:42;;;;;;;5.97;3.90;;;9.80;99.90;;;;;;5012345;28;20515;-74
2021/10/20 05:20:10;;;;;;;4.60;4.20;;;9.80;99.90;;;;;;5029637;28;20466;-74
2021/10/20 05:22:36;;;;;;;6.57;4.57;;;9.80;99.90;;;;;;5028155;28;20455;-75
2021/10/20 05:25:07;;;;;;;7.03;5.27;;;9.80;99.90;;;;;;5014200;28;20549;-75
2021/10/20 05:27:33;;;;;;;8.10;5.80;;;9.80;99.90;;;;;;5012116;28;20493;-75
2021/10/20 05:29:59;;;;;;;6.87;5.67;;;9.80;99.90;;;;;;5016221;28;20458;-76
2021/10/20 05:32:25;;;;;;;10.47;6.17;;;9.80;99.90;;;;;;5016085;28;20462;-75
2021/10/20 05:34:51;;;;;;;5.60;4.93;;;9.80;99.90;;;;;;5034373;28;20998;-75
2021/10/20 05:37:17;;;;;;;6.30;4.93;;;9.80;99.90;;;;;;5017304;28;20474;-76
2021/10/20 05:39:43;;;;;;;9.10;8.20;;;9.80;99.90;;;;;;5031400;28;20306;-76
2021/10/20 05:42:08;;;;;;;11.13;8.47;;;9.80;99.90;;;;;;5016903;28;20215;-76
2021/10/20 05:44:34;;;;;;;7.97;6.60;;;9.80;99.90;;;;;;5032304;28;20232;-76
2021/10/20 05:47:00;;;;;;;9.27;6.00;;;9.70;99.90;;;;;;5024246;28;20223;-75
2021/10/20 05:49:25;;;;;;;15.20;6.00;;;9.70;99.90;;;;;;5023541;28;20711;-75
2021/10/20 05:51:51;;;;;;;11.13;6.47;;;9.70;99.90;;;;;;5017215;28;20226;-75
2021/10/20 05:54:17;;;;;;;9.37;6.40;;;9.70;99.90;;;;;;5016918;28;20216;-73
2021/10/20 05:56:43;;;;;;;8.43;6.13;;;9.70;99.90;;;;;;5015621;28;20634;-75
2021/10/20 05:59:08;;;;;;;9.70;6.57;;;9.70;99.90;;;;;;5033337;28;20223;-75
2021/10/20 06:01:34;;;;;;;9.27;6.20;;;9.70;99.90;;;;;;5015194;28;20222;-75
2021/10/20 06:04:00;;;;;;;8.70;6.17;;;9.70;99.90;;;;;;5031945;28;20224;-75
2021/10/20 06:06:26;;;;;;;7.80;5.73;;;9.70;99.90;;;;;;5011878;28;20237;-75
2021/10/20 06:08:53;;;;;;;6.70;6.00;;;9.70;99.90;;;;;;5031127;28;21045;-75
2021/10/20 06:11:19;;;;;;;10.57;6.10;;;9.70;99.90;;;;;;5013060;28;20287;-74
2021/10/20 06:13:44;;;;;;;8.53;6.13;;;9.70;99.90;;;;;;5016481;28;20507;-74
2021/10/20 06:16:11;;;;;;;6.17;5.00;;;9.80;99.90;;;;;;5032040;28;20465;-76
2021/10/20 06:18:37;;;;;;;14.13;7.70;;;9.70;99.90;;;;;;5030273;28;20619;-75
2021/10/20 06:21:03;;;;;;;10.13;6.23;;;9.80;99.90;;;;;;5031871;28;20998;-74
2021/10/20 06:23:30;;;;;;;9.70;8.23;;;9.80;99.90;;;;;;5030254;28;20580;-74
2021/10/20 06:25:55;;;;;;;10.23;7.70;;;9.80;99.90;;;;;;5031798;28;20481;-74
2021/10/20 06:28:21;;;;;;;8.33;6.87;;;9.80;99.90;;;;;;5012498;28;20491;-73
2021/10/20 06:30:47;;;;;;;9.77;6.77;;;9.80;99.90;;;;;;5031173;28;20228;-75
2021/10/20 06:33:12;;;;;;;8.43;6.20;;;9.80;99.90;;;;;;5031110;28;20270;-74
2021/10/20 06:35:38;;;;;;;6.40;5.30;;;9.80;99.90;;;;;;5013615;28;20297;-75
2021/10/20 06:38:04;;;;;;;9.30;5.90;;;9.80;99.90;;;;;;5014050;28;20233;-75
2021/10/20 06:40:31;;;;;;;7.47;5.60;;;9.80;99.90;;;;;;5012048;28;20238;-75
2021/10/20 06:42:57;;;;;;;7.23;5.30;;;9.80;99.90;;;;;;5015416;28;20228;-75
2021/10/20 06:45:23;;;;;;;9.27;6.53;;;9.80;99.90;;;;;;5012330;28;20460;-75
2021/10/20 06:47:49;;;;;;;9.90;6.80;;;9.80;99.90;;;;;;5011573;28;20462;-75
2021/10/20 06:50:16;;;;;;;10.47;6.97;;;9.90;99.90;;;;;;5011708;28;20522;-74
2021/10/20 06:52:42;;;;;;;8.00;5.90;;;9.90;99.90;;;;;;5011743;28;20255;-73
2021/10/20 06:55:08;;;;;;;7.57;6.37;;;9.90;99.90;;;;;;5014372;28;20486;-74
2021/10/20 06:57:34;;;;;;;9.93;5.87;;;9.90;99.90;;;;;;5031696;28;20295;-74
2021/10/20 06:59:59;;;;;;;9.90;6.40;;;9.90;99.90;;;;;;5030595;28;21039;-74
2021/10/20 07:02:25;;;;;;;8.90;6.47;;;10.00;99.90;;;;;;5044081;28;20208;-75
2021/10/20 07:04:51;;;;;;;9.37;6.33;;;10.00;99.90;;;;;;5014034;28;20230;-75
2021/10/20 07:07:17;;;;;;;8.63;6.20;;;10.00;99.90;;;;;;5014389;28;20255;-75
2021/10/20 07:09:43;;;;;;;9.10;5.90;;;10.10;99.90;;;;;;5029693;28;20701;-75
2021/10/20 07:12:08;;;;;;;8.47;6.40;;;10.20;99.90;;;;;;5049358;28;20465;-75
2021/10/20 07:14:34;;;;;;;8.63;6.37;;;10.30;99.90;;;;;;5030151;28;20600;-75
2021/10/20 07:17:00;;;;;;;9.37;6.20;;;10.40;99.90;;;;;;5014229;28;20224;-76
2021/10/20 07:19:27;;;;;;;8.53;6.13;;;10.60;99.90;;;;;;5046866;28;20220;-76
2021/10/20 07:21:53;;;;;;;9.33;5.83;;;10.60;99.90;;;;;;5031824;28;20234;-75
2021/10/20 07:24:18;;;;;;;6.97;5.60;;;10.70;99.90;;;;;;5038417;28;20604;-75
2021/10/20 07:26:44;;;;;;;8.30;6.20;;;10.80;99.90;;;;;;5012459;28;20469;-76
2021/10/20 07:29:10;;;;;;;6.87;5.70;;;10.80;99.90;;;;;;5008980;28;20319;-75
2021/10/20 07:31:35;;;;;;;8.47;6.23;;;10.80;99.90;;;;;;5007773;28;20306;-75
2021/10/20 07:34:01;;;;;;;9.13;5.83;;;10.90;99.90;;;;;;5011437;28;20260;-75
2021/10/20 07:36:28;;;;;;;8.20;6.10;;;10.90;99.90;;;;;;5009733;28;20204;-75
2021/10/20 07:38:54;;;;;;;8.63;6.80;;;11.00;99.90;;;;;;5028607;28;20230;-74
2021/10/20 07:41:20;;;;;;;7.33;6.10;;;11.00;99.90;;;;;;5011685;28;20454;-75
2021/10/20 07:43:47;;;;;;;8.30;6.47;;;11.10;99.90;;;;;;5012166;28;20458;-76
2021/10/20 07:46:13;;;;;;;10.47;7.77;;;11.20;99.90;;;;;;5029769;28;20463;-74
2021/10/20 07:48:38;;;;;;;8.40;7.10;;;11.30;99.90;;;;;;5011545;28;20462;-76
2021/10/20 07:51:04;;;;;;;8.77;6.80;;;11.40;99.90;;;;;;5010604;28;20231;-75
2021/10/20 07:53:30;;;;;;;9.47;6.83;;;11.50;99.90;;;;;;5026795;28;20224;-75
2021/10/20 07:55:55;;;;;;;9.23;7.20;;;11.50;99.90;;;;;;5012194;28;20709;-75
2021/10/20 07:58:21;;;;;;;8.93;7.23;;;11.60;99.90;;;;;;5009507;28;20247;-74
2021/10/20 08:00:47;;;;;;;14.83;7.33;;;11.60;99.90;;;;;;5028636;28;20227;-74
2021/10/20 08:03:12;;;;;;;12.23;6.60;;;11.70;99.90;;;;;;5014231;28;20215;-74
2021/10/20 08:05:38;;;;;;;9.97;7.27;;;11.70;99.90;;;;;;5007422;28;20252;-75
2021/10/20 08:08:09;;;;;;;8.40;6.83;;;11.80;99.90;;;;;;5011680;28;20313;-75
2021/10/20 08:10:35;;;;;;;7.53;6.20;;;11.90;99.90;;;;;;5024202;28;20797;-75
2021/10/20 08:13:00;;;;;;;8.20;6.70;;;12.00;99.90;;;;;;5042824;28;20545;-75
2021/10/20 08:15:27;;;;;;;13.23;8.20;;;12.10;99.90;;;;;;5010631;28;20240;-75
2021/10/20 08:17:53;;;;;;;9.63;7.33;;;12.10;99.90;;;;;;5047384;28;20732;-75
2021/10/20 08:20:21;;;;;;;8.83;6.83;;;12.20;99.90;;;;;;5027442;28;20467;-75
2021/10/20 08:22:48;;;;;;;8.83;6.77;;;12.30;99.90;;;;;;5028292;28;20226;-74
2021/10/20 08:25:14;;;;;;;10.50;6.97;;;12.40;99.90;;;;;;5028389;28;20700;-75
2021/10/20 08:27:40;;;;;;;10.73;7.90;;;12.60;99.90;;;;;;5027000;28;21346;-74
2021/10/20 08:30:08;;;;;;;9.27;7.53;;;12.70;99.90;;;;;;5022406;28;20462;-75
2021/10/20 08:32:34;;;;;;;8.50;7.30;;;12.80;99.90;;;;;;5027077;28;20458;-75
2021/10/20 08:35:00;;;;;;;10.50;8.80;;;12.80;99.90;;;;;;5045583;28;20497;-75
2021/10/20 08:37:25;;;;;;;13.20;7.90;;;12.90;99.90;;;;;;5028416;28;20219;-75
2021/10/20 08:39:51;;;;;;;12.53;7.17;;;13.00;99.90;;;;;;5010627;28;20331;-75
2021/10/20 08:42:17;;;;;;;10.97;7.80;;;13.10;99.90;;;;;;5012569;28;20227;-75
2021/10/20 08:44:43;;;;;;;11.70;8.37;;;13.10;99.90;;;;;;5026704;28;20309;-75
2021/10/20 08:47:11;;;;;;;9.73;7.40;;;13.20;99.90;;;;;;5028426;28;20466;-74
2021/10/20 08:49:39;;;;;;;11.73;7.47;;;13.20;99.90;;;;;;5010149;28;20481;-75
2021/10/20 08:52:05;;;;;;;11.27;6.97;;;13.20;99.90;;;;;;5007487;28;20463;-75
2021/10/20 08:54:31;;;;;;;8.70;6.90;;;13.30;99.90;;;;;;5006710;28;20490;-75
2021/10/20 08:56:57;;;;;;;9.50;7.80;;;13.30;99.90;;;;;;5008370;28;20474;-75
2021/10/20 08:59:23;;;;;;;11.10;7.70;;;13.40;99.90;;;;;;5009000;28;20220;-76
2021/10/20 09:01:48;;;;;;;11.00;7.23;;;13.50;99.90;;;;;;5045121;28;20216;-75
2021/10/20 09:04:19;;;;;;;8.73;7.73;;;13.50;99.90;;;;;;5011420;28;20220;-75
2021/10/20 09:06:45;;;;;;;8.70;6.60;;;13.50;99.90;;;;;;5005932;28;20244;-75
2021/10/20 09:09:13;;;;;;;10.50;7.73;;;13.60;99.90;;;;;;5005349;28;20510;-76
2021/10/20 09:11:40;;;;;;;8.33;6.33;;;13.60;99.90;;;;;;5006408;28;20259;-75
2021/10/20 09:14:10;;;;;;;9.07;6.77;;;13.80;99.90;;;;;;5008713;28;20925;-75
2021/10/20 09:16:38;;;;;;;10.07;7.47;;;13.80;99.90;;;;;;5016532;28;20480;-75
2021/10/20 09:19:15;;;;;;;8.47;7.57;;;13.90;99.90;;;;;;5009247;28;20451;-74
2021/10/20 09:21:56;;;;;;;9.53;7.23;;;14.00;99.90;;;;;;5007223;28;20482;-75
2021/10/20 09:24:33;;;;;;;7.60;6.70;;;14.00;99.90;;;;;;5006945;28;20474;-75
2021/10/20 09:26:59;;;;;;;13.10;8.20;;;14.10;99.90;;;;;;5006976;28;20458;-74
2021/10/20 09:29:28;;;;;;;9.20;7.47;;;14.20;99.90;;;;;;5008817;28;20852;-74
2021/10/20 09:31:55;;;;;;;8.23;7.10;;;14.20;99.90;;;;;;5011514;28;20230;-75
2021/10/20 09:34:21;;;;;;;8.00;7.00;;;14.30;99.90;;;;;;5014741;28;21003;-75
2021/10/20 09:36:51;;;;;;;14.40;6.93;;;14.30;99.90;;;;;;5020037;28;20491;-74
2021/10/20 09:39:17;;;;;;;14.50;7.30;;;14.30;99.90;;;;;;5045000;28;20462;-76
2021/10/20 09:41:43;;;;;;;11.27;6.73;;;14.40;99.90;;;;;;5009368;28;20458;-73
2021/10/20 09:44:12;;;;;;;7.83;6.43;;;14.40;99.90;;;;;;5007615;28;20225;-75
2021/10/20 09:46:41;;;;;;;10.43;6.60;;;14.40;99.90;;;;;;5006454;28;20721;-74
2021/10/20 09:49:14;;;;;;;11.00;7.30;;;14.50;99.90;;;;;;5008033;28;20538;-75
2021/10/20 09:51:40;;;;;;;8.13;6.60;;;14.50;99.90;;;;;;5006360;28;20455;-75
2021/10/20 09:54:41;;;;;;;8.23;7.10;;;14.60;99.90;;;;;;5008467;28;20473;-74
2021/10/20 09:57:07;;;;;;;11.63;7.53;;;14.60;99.90;;;;;;4979872;28;20319;-75
2021/10/20 09:59:32;;;;;;;8.20;7.40;;;14.70;99.90;;;;;;5037393;28;20546;-74
2021/10/20 10:01:59;;;;;;;8.53;5.67;;;14.80;99.90;;;;;;5014425;28;20716;-74
2021/10/20 10:04:29;;;;;;;10.10;7.37;;;14.90;99.90;;;;;;4989349;28;20217;-75
2021/10/20 10:06:55;;;;;;;9.53;7.33;;;14.90;99.90;;;;;;4988871;28;20911;-76
2021/10/20 10:09:20;;;;;;;8.13;6.80;;;15.00;99.90;;;;;;4992728;28;20455;-75
2021/10/20 10:11:59;;;;;;;9.60;6.87;;;15.10;99.90;;;;;;5011602;28;20689;-74
2021/10/20 10:14:29;;;;;;;6.93;6.13;;;15.10;99.90;;;;;;5014241;28;20247;-75
2021/10/20 10:17:01;;;;;;;6.67;5.97;;;15.10;99.90;;;;;;4995906;28;20460;-74
2021/10/20 10:19:29;;;;;;;7.33;6.60;;;15.20;99.90;;;;;;5003144;28;20463;-75
2021/10/20 10:21:55;;;;;;;8.60;7.10;;;15.20;99.90;;;;;;4993093;28;20459;-76
2021/10/20 10:24:21;;;;;;;8.30;6.93;;;15.20;99.90;;;;;;5007942;28;20459;-76
2021/10/20 10:27:06;;;;;;;7.53;5.80;;;15.30;99.90;;;;;;5014471;28;20224;-74
2021/10/20 10:29:34;;;;;;;6.77;6.03;;;15.30;99.90;;;;;;5028230;28;20220;-75
2021/10/20 10:32:06;;;;;;;9.17;6.50;;;15.30;99.90;;;;;;5028848;28;20995;-75
2021/10/20 10:34:35;;;;;;;6.97;6.23;;;15.30;99.90;;;;;;4979941;28;20487;-75
2021/10/20 10:37:01;;;;;;;7.90;7.03;;;15.30;99.90;;;;;;4995748;28;20463;-75
2021/10/20 10:39:29;;;;;;;9.43;6.30;;;15.30;99.90;;;;;;5008098;28;20471;-75
2021/10/20 10:42:14;;;;;;;10.07;7.43;;;15.30;99.90;;;;;;5000971;28;20474;-75
2021/10/20 10:44:47;;;;;;;7.70;5.67;;;15.30;99.90;;;;;;5017318;28;20463;-76
2021/10/20 10:47:19;;;;;;;9.47;7.00;;;15.40;99.90;;;;;;5005323;28;20463;-76
2021/10/20 10:49:53;;;;;;;6.83;6.13;;;15.40;99.90;;;;;;5000497;28;20479;-75
2021/10/20 10:52:37;;;;;;;11.20;6.27;;;15.40;99.90;;;;;;5029301;28;20566;-76
2021/10/20 10:55:14;;;;;;;11.87;10.67;;;15.40;99.90;;;;;;5025208;28;20459;-74
2021/10/20 10:58:03;;;;;;;13.87;10.53;;;15.40;99.90;;;;;;5002253;28;20458;-75
2021/10/20 11:00:46;;;;;;;36.37;26.57;;;15.40;99.90;;;;;;5006930;28;20562;-75
2021/10/20 11:03:16;;;;;;;76.40;50.03;;;15.40;99.90;;;;;;5009963;28;21036;-75
2021/10/20 11:05:54;;;;;;;80.73;49.80;;;15.40;99.90;;;;;;5007871;28;20980;-76
2021/10/20 11:08:20;;;;;;;73.50;44.97;;;15.50;99.90;;;;;;5009335;28;20532;-75
2021/10/20 11:10:47;;;;;;;68.53;42.57;;;15.50;99.90;;;;;;5027047;28;20494;-75
2021/10/20 11:13:13;;;;;;;32.33;24.40;;;15.50;99.90;;;;;;5027458;28;20467;-75
2021/10/20 11:15:39;;;;;;;14.10;11.20;;;15.50;99.90;;;;;;5027317;28;20463;-75
2021/10/20 11:18:05;;;;;;;9.23;8.23;;;15.60;99.90;;;;;;5026032;28;20509;-76
2021/10/20 11:20:34;;;;;;;8.23;6.70;;;15.60;99.90;;;;;;5021391;28;20467;-76
2021/10/20 11:23:06;;;;;;;7.93;6.43;;;15.60;99.90;;;;;;5005364;28;20277;-75
2021/10/20 11:25:36;;;;;;;9.00;6.60;;;15.70;99.90;;;;;;4990789;28;20536;-75
2021/10/20 11:28:03;;;;;;;7.07;5.37;;;15.70;99.90;;;;;;5026394;28;20486;-75
2021/10/20 11:30:31;;;;;;;39.93;25.40;;;15.70;99.90;;;;;;4996887;28;20496;-75
2021/10/20 11:32:58;;;;;;;59.93;36.23;;;15.80;99.90;;;;;;4990070;28;20506;-75
2021/10/20 11:35:26;;;;;;;44.57;27.40;;;15.80;99.90;;;;;;4974576;28;20468;-74
2021/10/20 11:38:04;;;;;;;41.73;27.80;;;15.80;99.90;;;;;;5006808;28;20528;-75
2021/10/20 11:40:34;;;;;;;38.00;26.70;;;15.90;99.90;;;;;;4989721;28;20502;-75
2021/10/20 11:43:00;;;;;;;35.80;25.87;;;15.90;99.90;;;;;;5009336;28;20617;-75
2021/10/20 11:45:30;;;;;;;29.93;19.40;;;16.00;99.90;;;;;;5008093;28;20475;-75
2021/10/20 11:48:00;;;;;;;26.43;18.57;;;15.90;99.90;;;;;;5009683;28;20467;-75
2021/10/20 11:50:28;;;;;;;61.07;37.57;;;16.00;99.90;;;;;;5008047;28;20530;-74
2021/10/20 11:53:00;;;;;;;61.13;35.70;;;16.10;99.90;;;;;;5009762;28;20884;-75
2021/10/20 11:55:27;;;;;;;46.77;30.87;;;16.10;99.90;;;;;;5023619;28;20475;-73
2021/10/20 11:57:53;;;;;;;30.43;20.33;;;16.10;99.90;;;;;;5015770;28;20486;-75
2021/10/20 12:00:20;;;;;;;38.63;24.80;;;16.10;99.90;;;;;;4996523;28;20471;-74
2021/10/20 12:02:46;;;;;;;23.00;14.80;;;16.10;99.90;;;;;;5007217;28;20232;-76
2021/10/20 12:05:12;;;;;;;37.00;22.83;;;16.20;99.90;;;;;;5025457;28;20479;-76
2021/10/20 12:07:39;;;;;;;31.00;20.53;;;16.20;99.90;;;;;;5022412;28;20216;-75
2021/10/20 12:10:07;;;;;;;29.77;21.73;;;16.20;99.90;;;;;;5017322;28;20296;-75
2021/10/20 12:12:35;;;;;;;13.67;11.53;;;16.20;99.90;;;;;;5000163;28;20471;-75
2021/10/20 12:15:01;;;;;;;8.30;7.00;;;16.20;99.90;;;;;;5024488;28;20463;-76
2021/10/20 12:17:28;;;;;;;8.33;6.27;;;16.20;99.90;;;;;;5004153;28;20466;-75
2021/10/20 12:19:57;;;;;;;7.33;6.23;;;16.30;99.90;;;;;;5006641;28;20229;-75
2021/10/20 12:22:24;;;;;;;7.93;6.50;;;16.30;99.90;;;;;;5023640;28;20467;-75
2021/10/20 12:24:51;;;;;;;6.30;5.57;;;16.30;99.90;;;;;;5026519;28;20477;-77
2021/10/20 12:27:20;;;;;;;6.43;5.43;;;16.30;99.90;;;;;;5009300;28;20502;-75
2021/10/20 12:29:54;;;;;;;9.07;6.20;;;16.30;99.90;;;;;;5005833;28;20463;-76
2021/10/20 12:32:24;;;;;;;9.70;6.27;;;16.30;99.90;;;;;;5005282;28;20514;-76
2021/10/20 12:34:57;;;;;;;10.53;7.00;;;16.20;99.90;;;;;;5026599;28;20459;-76
2021/10/20 12:37:30;;;;;;;23.97;18.10;;;16.30;99.90;;;;;;5008105;28;20546;-74
2021/10/20 12:39:57;;;;;;;34.00;21.80;;;16.30;99.90;;;;;;5023454;28;20477;-75
2021/10/20 12:42:23;;;;;;;51.13;31.23;;;16.30;99.90;;;;;;5024898;28;20517;-75
2021/10/20 12:44:57;;;;;;;51.87;32.30;;;16.30;99.90;;;;;;5026903;28;20486;-76